createdAt,value
2017-10-23T00:01:20.386Z,2.92
2017-10-23T00:03:48.255Z,2.83
2017-10-23T00:06:16.118Z,3.25
2017-10-23T00:08:43.985Z,2.70
2017-10-23T00:11:11.853Z,2.97
2017-10-23T00:13:39.721Z,2.62
2017-10-23T00:16:07.587Z,2.50
2017-10-23T00:18:35.455Z,2.80
2017-10-23T00:21:03.322Z,2.72
2017-10-23T00:23:31.190Z,2.60
2017-10-23T00:25:59.058Z,2.75
2017-10-23T00:28:26.863Z,2.97
2017-10-23T00:30:55.443Z,2.40
2017-10-23T00:33:24.093Z,2.80
2017-10-23T00:35:51.962Z,2.55
2017-10-23T00:38:19.827Z,2.67
2017-10-23T00:40:47.694Z,3.08
2017-10-23T00:43:15.562Z,2.70
2017-10-23T00:45:43.432Z,2.50
2017-10-23T00:48:11.297Z,2.33
2017-10-23T00:50:39.163Z,2.25
2017-10-23T00:53:07.041Z,2.33
2017-10-23T00:55:34.899Z,2.67
2017-10-23T00:58:02.798Z,1.95
2017-10-23T01:00:31.456Z,2.58
2017-10-23T01:02:59.319Z,2.85
2017-10-23T01:05:27.188Z,2.45
2017-10-23T01:07:55.054Z,2.95
2017-10-23T01:10:22.921Z,3.50
2017-10-23T01:12:50.789Z,2.87
2017-10-23T01:15:18.656Z,2.10
2017-10-23T01:17:46.523Z,2.50
2017-10-23T01:20:14.390Z,2.30
2017-10-23T01:22:42.259Z,2.92
2017-10-23T01:25:10.125Z,2.50
2017-10-23T01:27:37.993Z,3.10
2017-10-23T01:30:05.863Z,2.55
2017-10-23T01:32:33.728Z,2.50
2017-10-23T01:35:01.594Z,2.30
2017-10-23T01:37:29.462Z,2.70
2017-10-23T01:39:57.329Z,2.33
2017-10-23T01:42:25.197Z,2.92
2017-10-23T01:44:53.064Z,2.53
2017-10-23T01:47:20.931Z,2.10
2017-10-23T01:49:48.802Z,2.28
2017-10-23T01:52:16.666Z,2.37
2017-10-23T01:54:44.532Z,2.55
2017-10-23T01:57:12.400Z,2.95
2017-10-23T01:59:40.268Z,2.90
2017-10-23T02:02:08.135Z,2.42
2017-10-23T02:04:36.007Z,2.30
2017-10-23T02:07:03.874Z,2.78
2017-10-23T02:09:31.737Z,2.30
2017-10-23T02:11:59.604Z,2.75
2017-10-23T02:14:27.471Z,2.42
2017-10-23T02:16:55.271Z,3.12
2017-10-23T02:19:23.923Z,2.95
2017-10-23T02:21:51.790Z,3.70
2017-10-23T02:24:19.657Z,2.47
2017-10-23T02:26:47.525Z,2.55
2017-10-23T02:29:15.393Z,2.40
2017-10-23T02:31:43.268Z,2.33
2017-10-23T02:34:11.947Z,3.45
2017-10-23T02:36:39.822Z,2.90
2017-10-23T02:39:08.398Z,2.25
2017-10-23T02:41:36.265Z,2.90
2017-10-23T02:44:04.132Z,2.50
2017-10-23T02:46:32.000Z,2.72
2017-10-23T02:48:59.867Z,3.03
2017-10-23T02:51:27.733Z,2.30
2017-10-23T02:53:55.531Z,3.17
2017-10-23T02:56:24.087Z,2.70
2017-10-23T02:58:51.955Z,2.85
2017-10-23T03:01:19.818Z,2.70
2017-10-23T03:03:47.691Z,2.70
2017-10-23T03:06:15.556Z,2.97
2017-10-23T03:08:43.424Z,2.87
2017-10-23T03:11:11.291Z,3.00
2017-10-23T03:13:39.156Z,3.22
2017-10-23T03:16:07.022Z,3.10
2017-10-23T03:18:34.890Z,2.87
2017-10-23T03:21:02.756Z,3.65
2017-10-23T03:23:30.727Z,2.75
2017-10-23T03:25:58.595Z,2.95
2017-10-23T03:28:26.460Z,2.72
2017-10-23T03:30:54.330Z,2.28
2017-10-23T03:33:22.198Z,2.62
2017-10-23T03:35:50.063Z,2.70
2017-10-23T03:38:18.031Z,2.40
2017-10-23T03:40:45.899Z,2.30
2017-10-23T03:43:13.766Z,2.37
2017-10-23T03:45:41.736Z,2.40
2017-10-23T03:48:09.607Z,2.67
2017-10-23T03:50:37.471Z,3.30
2017-10-23T03:53:05.338Z,3.10
2017-10-23T03:55:33.209Z,2.55
2017-10-23T03:58:01.073Z,2.90
2017-10-23T04:00:28.941Z,2.80
2017-10-23T04:02:56.808Z,3.85
2017-10-23T04:05:24.778Z,2.83
2017-10-23T04:07:52.645Z,3.33
2017-10-23T04:10:20.513Z,2.67
2017-10-23T04:12:48.482Z,2.65
2017-10-23T04:15:16.349Z,2.40
2017-10-23T04:17:44.217Z,2.42
2017-10-23T04:20:12.188Z,2.67
2017-10-23T04:22:40.157Z,2.22
2017-10-23T04:25:08.023Z,3.45
2017-10-23T04:27:35.891Z,2.62
2017-10-23T04:30:03.758Z,2.78
2017-10-23T04:32:31.625Z,2.70
2017-10-23T04:35:00.516Z,3.10
2017-10-23T04:37:28.419Z,3.30
2017-10-23T04:39:57.070Z,3.28
2017-10-23T04:42:24.938Z,3.10
2017-10-23T04:44:52.805Z,3.72
2017-10-23T04:47:20.672Z,3.00
2017-10-23T04:49:48.539Z,2.67
2017-10-23T04:52:16.407Z,3.58
2017-10-23T04:54:44.274Z,2.30
2017-10-23T04:57:12.144Z,3.40
2017-10-23T04:59:40.009Z,3.03
2017-10-23T05:02:07.875Z,3.00
2017-10-23T05:04:35.763Z,2.90
2017-10-23T05:07:03.713Z,2.67
2017-10-23T05:09:31.580Z,2.70
2017-10-23T05:11:59.448Z,3.30
2017-10-23T05:14:27.315Z,3.08
2017-10-23T05:16:55.116Z,3.30
2017-10-23T05:19:23.770Z,3.90
2017-10-23T05:21:51.634Z,3.70
2017-10-23T05:24:19.503Z,3.80
2017-10-23T05:26:47.369Z,4.03
2017-10-23T05:29:15.236Z,3.00
2017-10-23T05:31:43.108Z,3.40
2017-10-23T05:34:10.978Z,2.78
2017-10-23T05:36:38.838Z,2.80
2017-10-23T05:39:06.705Z,5.32
2017-10-23T05:41:34.573Z,3.20
2017-10-23T05:44:02.441Z,3.25
2017-10-23T05:46:30.307Z,3.30
2017-10-23T05:48:58.174Z,3.08
2017-10-23T05:51:26.042Z,3.15
2017-10-23T05:53:53.908Z,3.80
2017-10-23T05:56:21.777Z,3.22
2017-10-23T05:58:49.643Z,2.97
2017-10-23T06:01:17.511Z,3.12
2017-10-23T06:03:45.378Z,2.90
2017-10-23T06:06:13.257Z,3.28
2017-10-23T06:08:41.117Z,2.85
2017-10-23T06:11:08.982Z,2.90
2017-10-23T06:13:36.953Z,2.97
2017-10-23T06:16:04.823Z,3.58
2017-10-23T06:18:32.689Z,3.80
2017-10-23T06:21:00.658Z,4.20
2017-10-23T06:23:28.627Z,2.90
2017-10-23T06:25:56.596Z,3.40
2017-10-23T06:28:24.461Z,3.17
2017-10-23T06:30:52.328Z,3.12
2017-10-23T06:33:20.299Z,3.25
2017-10-23T06:35:48.166Z,2.90
2017-10-23T06:38:16.033Z,3.35
2017-10-23T06:40:43.900Z,3.15
2017-10-23T06:43:11.768Z,3.15
2017-10-23T06:45:39.634Z,3.87
2017-10-23T06:48:07.435Z,3.80
2017-10-23T06:50:36.085Z,3.00
2017-10-23T06:53:03.954Z,3.28
2017-10-23T06:55:31.821Z,3.10
2017-10-23T06:57:59.790Z,3.40
2017-10-23T07:00:27.658Z,3.35
2017-10-23T07:02:55.627Z,2.75
2017-10-23T07:05:23.494Z,2.85
2017-10-23T07:07:51.363Z,3.47
2017-10-23T07:10:19.229Z,3.75
2017-10-23T07:12:47.100Z,3.35
2017-10-23T07:15:14.971Z,3.20
2017-10-23T07:17:42.832Z,3.33
2017-10-23T07:20:10.802Z,3.00
2017-10-23T07:22:38.669Z,3.20
2017-10-23T07:25:06.537Z,3.03
2017-10-23T07:27:34.402Z,3.40
2017-10-23T07:30:02.283Z,3.35
2017-10-23T07:32:30.137Z,3.05
2017-10-23T07:34:58.005Z,4.00
2017-10-23T07:37:25.876Z,3.47
2017-10-23T07:39:53.739Z,4.12
2017-10-23T07:42:21.606Z,4.43
2017-10-23T07:44:49.474Z,2.90
2017-10-23T07:47:17.341Z,3.30
2017-10-23T07:49:45.208Z,2.72
2017-10-23T07:52:13.006Z,2.50
2017-10-23T07:54:41.660Z,2.65
2017-10-23T07:57:09.455Z,3.55
2017-10-23T07:59:38.112Z,2.87
2017-10-23T08:02:05.983Z,3.00
2017-10-23T08:04:33.846Z,3.20
2017-10-23T08:07:01.715Z,2.83
2017-10-23T08:09:29.581Z,2.92
2017-10-23T08:11:57.448Z,3.08
2017-10-23T08:14:25.322Z,2.60
2017-10-23T08:16:53.183Z,2.80
2017-10-23T08:19:21.052Z,2.75
2017-10-23T08:21:48.917Z,2.85
2017-10-23T08:24:16.785Z,2.75
2017-10-23T08:26:44.652Z,2.60
2017-10-23T08:29:12.519Z,3.25
2017-10-23T08:31:40.386Z,3.17
2017-10-23T08:34:08.255Z,2.75
2017-10-23T08:36:36.121Z,2.80
2017-10-23T08:39:03.989Z,3.37
2017-10-23T08:41:31.857Z,2.50
2017-10-23T08:43:59.724Z,2.80
2017-10-23T08:46:27.591Z,2.87
2017-10-23T08:48:55.458Z,2.90
2017-10-23T08:51:23.325Z,3.00
2017-10-23T08:53:51.193Z,3.65
2017-10-23T08:56:19.059Z,3.22
2017-10-23T08:58:46.930Z,3.60
2017-10-23T09:01:14.795Z,2.67
2017-10-23T09:03:42.662Z,2.95
2017-10-23T09:06:10.529Z,2.85
2017-10-23T09:08:38.395Z,2.42
2017-10-23T09:11:06.264Z,2.75
2017-10-23T09:13:34.131Z,4.25
2017-10-23T09:16:01.998Z,2.53
2017-10-23T09:18:29.763Z,2.45
2017-10-23T09:20:58.461Z,2.30
2017-10-23T09:23:26.318Z,2.50
2017-10-23T09:25:54.185Z,2.35
2017-10-23T09:28:22.058Z,2.60
2017-10-23T09:30:50.134Z,3.30
2017-10-23T09:33:18.099Z,2.45
2017-10-23T09:35:45.964Z,3.10
2017-10-23T09:38:13.831Z,2.70
2017-10-23T09:40:41.771Z,2.53
2017-10-23T09:43:09.664Z,2.33
2017-10-23T09:45:37.531Z,2.75
2017-10-23T09:48:05.399Z,2.50
2017-10-23T09:50:33.267Z,2.60
2017-10-23T09:53:03.797Z,3.55
2017-10-23T09:55:31.869Z,2.90
2017-10-23T09:57:59.736Z,2.40
2017-10-23T10:00:27.603Z,2.37
2017-10-23T10:02:55.472Z,4.20
2017-10-23T10:05:23.340Z,2.35
2017-10-23T10:07:51.205Z,2.65
2017-10-23T10:10:19.072Z,2.30
2017-10-23T10:12:46.940Z,2.75
2017-10-23T10:15:14.807Z,2.58
2017-10-23T10:17:42.677Z,2.45
2017-10-23T10:20:10.543Z,2.50
2017-10-23T10:22:38.411Z,2.12
2017-10-23T10:25:06.277Z,2.95
2017-10-23T10:27:34.144Z,2.95
2017-10-23T10:30:02.013Z,2.30
2017-10-23T10:32:29.882Z,2.92
2017-10-23T10:34:57.757Z,2.00
2017-10-23T10:37:25.614Z,2.20
2017-10-23T10:39:53.480Z,1.90
2017-10-23T10:42:21.347Z,2.42
2017-10-23T10:44:49.215Z,1.80
2017-10-23T10:47:17.083Z,2.08
2017-10-23T10:49:44.950Z,2.40
2017-10-23T10:52:12.817Z,2.25
2017-10-23T10:54:40.684Z,2.85
2017-10-23T10:57:08.552Z,2.37
2017-10-23T10:59:36.419Z,2.33
2017-10-23T11:02:04.285Z,2.28
2017-10-23T11:04:32.153Z,2.40
2017-10-23T11:07:00.021Z,1.95
2017-10-23T11:09:27.888Z,2.03
2017-10-23T11:11:55.755Z,2.35
2017-10-23T11:14:23.623Z,1.73
2017-10-23T11:16:51.490Z,2.22
2017-10-23T11:19:19.360Z,2.08
2017-10-23T11:21:47.224Z,2.12
2017-10-23T11:24:15.093Z,2.40
2017-10-23T11:26:42.959Z,1.98
2017-10-23T11:29:10.827Z,2.33
2017-10-23T11:31:38.694Z,1.60
2017-10-23T11:34:06.561Z,1.80
2017-10-23T11:36:34.430Z,2.95
2017-10-23T11:39:02.296Z,1.85
2017-10-23T11:41:30.164Z,2.20
2017-10-23T11:43:58.031Z,1.90
2017-10-23T11:46:25.898Z,1.80
2017-10-23T11:48:53.765Z,2.10
2017-10-23T11:51:21.633Z,2.47
2017-10-23T11:53:49.500Z,2.35
2017-10-23T11:56:17.366Z,1.80
2017-10-23T11:58:45.234Z,1.85
2017-10-23T12:01:13.103Z,2.05
2017-10-23T12:03:40.969Z,2.10
2017-10-23T12:06:08.837Z,2.10
2017-10-23T12:08:36.703Z,2.00
2017-10-23T12:11:04.571Z,2.15
2017-10-23T12:13:32.438Z,2.10
2017-10-23T12:16:00.306Z,2.30
2017-10-23T12:18:28.174Z,1.80
2017-10-23T12:20:56.040Z,2.10
2017-10-23T12:23:23.907Z,1.77
2017-10-23T12:25:51.775Z,2.08
2017-10-23T12:28:19.642Z,2.33
2017-10-23T12:30:47.515Z,1.67
2017-10-23T12:33:15.382Z,1.75
2017-10-23T12:35:43.363Z,2.25
2017-10-23T12:38:11.215Z,2.12
2017-10-23T12:40:39.085Z,2.67
2017-10-23T12:43:06.952Z,1.90
2017-10-23T12:45:34.824Z,2.40
2017-10-23T12:48:02.685Z,2.15
2017-10-23T12:50:30.552Z,1.85
2017-10-23T12:52:58.417Z,2.10
2017-10-23T12:55:26.285Z,2.00
2017-10-23T12:57:54.080Z,2.10
2017-10-23T13:00:21.920Z,2.08
2017-10-23T13:02:49.794Z,2.05
2017-10-23T13:05:17.651Z,2.42
2017-10-23T13:07:45.518Z,1.75
2017-10-23T13:10:13.392Z,2.15
2017-10-23T13:12:41.253Z,1.73
2017-10-23T13:15:09.120Z,1.90
2017-10-23T13:17:36.989Z,2.25
2017-10-23T13:20:04.862Z,1.85
2017-10-23T13:22:32.723Z,1.73
2017-10-23T13:25:00.590Z,1.75
2017-10-23T13:27:28.458Z,2.00
2017-10-23T13:29:56.325Z,2.17
2017-10-23T13:32:24.192Z,1.80
2017-10-23T13:34:52.060Z,2.30
2017-10-23T13:37:19.926Z,2.37
2017-10-23T13:39:47.794Z,2.00
2017-10-23T13:42:15.661Z,1.70
2017-10-23T13:44:43.529Z,2.00
2017-10-23T13:47:11.401Z,2.03
2017-10-23T13:49:39.263Z,2.28
2017-10-23T13:52:07.130Z,2.12
2017-10-23T13:54:34.998Z,1.92
2017-10-23T13:57:02.865Z,2.45
2017-10-23T13:59:30.732Z,1.90
2017-10-23T14:01:58.599Z,1.95
2017-10-23T14:04:26.467Z,2.30
2017-10-23T14:06:54.335Z,2.55
2017-10-23T14:09:22.215Z,2.08
2017-10-23T14:11:50.069Z,2.20
2017-10-23T14:14:17.936Z,1.83
2017-10-23T14:16:45.804Z,2.00
2017-10-23T14:19:13.773Z,3.08
2017-10-23T14:21:41.640Z,1.90
2017-10-23T14:24:09.508Z,2.53
2017-10-23T14:26:37.375Z,2.35
2017-10-23T14:29:05.242Z,1.62
2017-10-23T14:31:33.109Z,2.60
2017-10-23T14:34:00.977Z,1.85
2017-10-23T14:36:28.844Z,1.90
2017-10-23T14:38:56.711Z,2.85
2017-10-23T14:41:24.580Z,2.42
2017-10-23T14:43:52.446Z,2.28
2017-10-23T14:46:20.314Z,2.92
2017-10-23T14:48:48.283Z,2.50
2017-10-23T14:51:16.151Z,2.50
2017-10-23T14:53:44.121Z,1.90
2017-10-23T14:56:11.995Z,2.90
2017-10-23T14:58:39.860Z,2.40
2017-10-23T15:01:07.722Z,2.50
2017-10-23T15:03:35.590Z,1.98
2017-10-23T15:06:03.456Z,12.10
2017-10-23T15:08:31.324Z,2.90
2017-10-23T15:10:59.191Z,2.12
2017-10-23T15:13:27.060Z,2.15
2017-10-23T15:15:54.930Z,2.55
2017-10-23T15:18:22.794Z,2.40
2017-10-23T15:20:50.660Z,2.40
2017-10-23T15:23:18.399Z,2.50
2017-10-23T15:25:46.286Z,2.05
2017-10-23T15:28:14.006Z,2.08
2017-10-23T15:30:41.710Z,2.40
2017-10-23T15:33:09.434Z,2.05
2017-10-23T15:35:37.146Z,2.20
2017-10-23T15:38:12.167Z,2.40
2017-10-23T15:40:40.050Z,2.78
2017-10-23T15:43:07.918Z,3.20
2017-10-23T15:45:35.790Z,2.42
2017-10-23T15:48:03.656Z,2.25
2017-10-23T15:50:31.520Z,2.83
2017-10-23T15:52:59.396Z,2.62
2017-10-23T15:55:27.259Z,2.58
2017-10-23T15:57:55.124Z,2.85
2017-10-23T16:00:27.311Z,2.37
2017-10-23T16:02:55.261Z,2.40
2017-10-23T16:05:23.127Z,2.47
2017-10-23T16:07:50.995Z,2.72
2017-10-23T16:10:18.861Z,4.95
2017-10-23T16:12:46.729Z,11.12
2017-10-23T16:15:14.595Z,4.53
2017-10-23T16:17:42.466Z,2.75
2017-10-23T16:20:10.332Z,2.40
2017-10-23T16:22:38.208Z,2.50
2017-10-23T16:25:06.066Z,2.50
2017-10-23T16:27:33.932Z,2.53
2017-10-23T16:30:01.800Z,2.80
2017-10-23T16:32:29.668Z,2.70
2017-10-23T16:34:57.535Z,2.53
2017-10-23T16:37:25.402Z,2.55
2017-10-23T16:39:53.270Z,3.50
2017-10-23T16:42:21.141Z,4.20
2017-10-23T16:44:49.004Z,4.12
2017-10-23T16:47:16.876Z,4.40
2017-10-23T16:49:44.738Z,3.37
2017-10-23T16:52:12.606Z,4.30
2017-10-23T16:54:40.473Z,5.05
2017-10-23T16:57:08.341Z,2.92
2017-10-23T16:59:36.209Z,3.15
2017-10-23T17:02:04.076Z,14.52
2017-10-23T17:04:31.944Z,6.10
2017-10-23T17:06:59.817Z,4.03
2017-10-23T17:09:27.678Z,2.92
2017-10-23T17:11:55.545Z,3.65
2017-10-23T17:14:23.412Z,2.80
2017-10-23T17:16:51.279Z,3.10
2017-10-23T17:19:19.147Z,3.30
2017-10-23T17:21:47.015Z,3.10
2017-10-23T17:24:14.901Z,3.45
2017-10-23T17:26:42.749Z,3.17
2017-10-23T17:29:10.547Z,3.20
2017-10-23T17:31:39.027Z,4.03
2017-10-23T17:34:07.681Z,3.15
2017-10-23T17:36:35.549Z,3.35
2017-10-23T17:39:03.416Z,3.58
2017-10-23T17:41:31.286Z,2.80
2017-10-23T17:43:59.151Z,2.97
2017-10-23T17:46:27.019Z,3.10
2017-10-23T17:48:54.885Z,2.70
2017-10-23T17:51:22.753Z,3.35
2017-10-23T17:53:50.621Z,3.20
2017-10-23T17:56:18.487Z,9.15
2017-10-23T17:58:46.355Z,3.92
2017-10-23T18:01:14.223Z,3.58
2017-10-23T18:03:42.090Z,3.50
2017-10-23T18:06:09.957Z,2.80
2017-10-23T18:08:37.830Z,3.20
2017-10-23T18:11:05.692Z,3.30
2017-10-23T18:13:33.559Z,3.53
2017-10-23T18:16:01.427Z,3.00
2017-10-23T18:18:29.294Z,3.00
2017-10-23T18:20:57.162Z,2.58
2017-10-23T18:23:25.028Z,3.10
2017-10-23T18:25:52.897Z,3.15
2017-10-23T18:28:20.764Z,3.60
2017-10-23T18:30:48.636Z,2.60
2017-10-23T18:33:16.497Z,2.90
2017-10-23T18:35:44.364Z,3.28
2017-10-23T18:38:12.231Z,2.70
2017-10-23T18:40:40.099Z,3.12
2017-10-23T18:43:07.966Z,3.30
2017-10-23T18:45:35.843Z,3.25
2017-10-23T18:48:03.702Z,3.10
2017-10-23T18:50:31.568Z,2.70
2017-10-23T18:52:59.436Z,2.97
2017-10-23T18:55:27.303Z,3.75
2017-10-23T18:57:55.170Z,3.78
2017-10-23T19:00:23.041Z,3.22
2017-10-23T19:02:50.907Z,4.05
2017-10-23T19:05:18.773Z,3.00
2017-10-23T19:07:46.646Z,3.50
2017-10-23T19:10:14.511Z,3.35
2017-10-23T19:12:42.378Z,2.78
2017-10-23T19:15:10.243Z,3.30
2017-10-23T19:17:38.115Z,2.95
2017-10-23T19:20:05.976Z,3.55
2017-10-23T19:22:33.848Z,3.10
2017-10-23T19:25:01.711Z,3.10
2017-10-23T19:27:29.577Z,3.40
2017-10-23T19:29:57.445Z,3.60
2017-10-23T19:32:25.313Z,3.80
2017-10-23T19:34:53.181Z,3.75
2017-10-23T19:37:21.048Z,3.65
2017-10-23T19:39:48.915Z,3.58
2017-10-23T19:42:16.782Z,3.12
2017-10-23T19:44:44.649Z,3.72
2017-10-23T19:47:12.516Z,4.03
2017-10-23T19:49:40.384Z,4.10
2017-10-23T19:52:08.251Z,3.05
2017-10-23T19:54:36.118Z,2.92
2017-10-23T19:57:03.985Z,3.75
2017-10-23T19:59:31.852Z,3.10
2017-10-23T20:01:59.720Z,3.67
2017-10-23T20:04:27.587Z,3.50
2017-10-23T20:06:55.455Z,3.50
2017-10-23T20:09:23.322Z,4.50
2017-10-23T20:11:51.191Z,3.70
2017-10-23T20:14:19.057Z,3.50
2017-10-23T20:16:46.925Z,3.72
2017-10-23T20:19:15.391Z,3.50
2017-10-23T20:21:43.274Z,3.60
2017-10-23T20:24:11.140Z,3.97
2017-10-23T20:26:43.987Z,3.67
2017-10-23T20:29:15.445Z,4.00
2017-10-23T20:31:48.081Z,4.30
2017-10-23T20:34:17.160Z,3.80
2017-10-23T20:36:45.019Z,3.40
2017-10-23T20:39:12.885Z,4.55
2017-10-23T20:41:40.859Z,3.50
2017-10-23T20:44:08.723Z,3.80
2017-10-23T20:46:36.519Z,4.07
2017-10-23T20:49:05.180Z,3.85
2017-10-23T20:51:33.042Z,3.65
2017-10-23T20:54:00.910Z,4.37
2017-10-23T20:56:28.776Z,4.35
2017-10-23T20:58:56.649Z,4.65
2017-10-23T21:01:24.511Z,4.57
2017-10-23T21:03:52.377Z,4.55
2017-10-23T21:06:20.247Z,4.82
2017-10-23T21:08:48.111Z,4.25
2017-10-23T21:11:15.980Z,4.72
2017-10-23T21:13:43.847Z,4.43
2017-10-23T21:16:11.714Z,5.60
2017-10-23T21:18:42.232Z,4.40
2017-10-23T21:21:10.112Z,4.18
2017-10-23T21:23:41.191Z,4.82
2017-10-23T21:26:09.942Z,4.62
2017-10-23T21:28:37.809Z,4.32
2017-10-23T21:31:05.677Z,4.57
2017-10-23T21:33:33.548Z,4.30
2017-10-23T21:36:01.413Z,4.97
2017-10-23T21:38:29.279Z,4.70
2017-10-23T21:40:57.152Z,4.43
2017-10-23T21:43:25.014Z,4.43
2017-10-23T21:45:52.881Z,4.80
2017-10-23T21:48:20.766Z,5.07
2017-10-23T21:50:48.616Z,5.80
2017-10-23T21:53:16.483Z,5.60
2017-10-23T21:55:44.351Z,5.00
2017-10-23T21:58:12.218Z,5.93
2017-10-23T22:00:40.089Z,5.28
2017-10-23T22:03:07.953Z,5.90
2017-10-23T22:05:35.820Z,4.93
2017-10-23T22:08:03.687Z,5.50
2017-10-23T22:10:31.555Z,5.28
2017-10-23T22:12:59.422Z,4.95
2017-10-23T22:15:27.292Z,5.10
2017-10-23T22:17:55.159Z,5.25
2017-10-23T22:20:23.026Z,6.03
2017-10-23T22:22:50.902Z,5.47
2017-10-23T22:25:18.764Z,5.28
2017-10-23T22:27:46.631Z,5.55
2017-10-23T22:30:14.494Z,5.68
2017-10-23T22:32:42.362Z,5.18
2017-10-23T22:35:10.228Z,6.45
2017-10-23T22:37:38.095Z,6.28
2017-10-23T22:40:05.963Z,6.78
2017-10-23T22:42:33.829Z,6.87
2017-10-23T22:45:01.699Z,6.00
2017-10-23T22:47:29.564Z,6.60
2017-10-23T22:49:57.440Z,7.68
2017-10-23T22:52:25.315Z,6.47
2017-10-23T22:54:53.176Z,7.80
2017-10-23T22:57:21.032Z,7.18
2017-10-23T22:59:48.901Z,7.43
2017-10-23T23:02:16.769Z,7.18
2017-10-23T23:04:44.636Z,7.30
2017-10-23T23:07:12.503Z,7.62
2017-10-23T23:09:40.373Z,8.07
2017-10-23T23:12:08.238Z,7.72
2017-10-23T23:14:36.104Z,8.70
2017-10-23T23:17:03.971Z,8.63
2017-10-23T23:19:31.847Z,9.20
2017-10-23T23:21:59.707Z,9.95
2017-10-23T23:24:27.573Z,9.57
2017-10-23T23:26:55.440Z,10.63
2017-10-23T23:29:23.309Z,10.13
2017-10-23T23:31:51.175Z,10.68
2017-10-23T23:34:19.043Z,11.00
2017-10-23T23:36:46.910Z,10.20
2017-10-23T23:39:14.777Z,10.25
2017-10-23T23:41:42.645Z,10.25
2017-10-23T23:44:10.512Z,10.85
2017-10-23T23:46:38.379Z,11.48
2017-10-23T23:49:06.247Z,11.50
2017-10-23T23:51:34.113Z,11.32
2017-10-23T23:54:01.981Z,10.30
2017-10-23T23:56:29.782Z,11.60
2017-10-23T23:58:58.432Z,12.27
